Time;durP1;ratioP1;P1;durP2;ratioP2;P2;SDS_P1;SDS_P2;PMS_P1;PMS_P2;Temp;Humidity;BMP_temperature;BMP_pressure;BME280_temperature;BME280_humidity;BME280_pressure;Samples;Min_cycle;Max_cycle;Signal;HPM_P1;HPM_P2
2020/12/16 00:01:02;;;;;;;;;;;25.30;95.50;;;;;;4926781;29;19917;-86
2020/12/16 00:03:29;;;;;;;;;;;25.40;94.50;;;;;;4921674;29;20361;-84
2020/12/16 00:05:55;;;;;;;;;;;25.30;94.50;;;;;;4928830;29;19911;-85
2020/12/16 00:08:22;;;;;;;;;;;25.40;94.80;;;;;;4925327;29;20343;-84
2020/12/16 00:10:49;;;;;;;;;;;25.40;95.00;;;;;;4926834;29;19921;-82
2020/12/16 00:13:15;;;;;;;;;;;25.50;94.50;;;;;;4921340;29;19922;-86
2020/12/16 00:15:44;;;;;;;;;;;25.60;94.60;;;;;;4916220;29;19944;-84
2020/12/16 00:18:11;;;;;;;;;;;25.60;94.40;;;;;;4927841;29;20473;-85
2020/12/16 00:20:37;;;;;;;;;;;25.60;93.90;;;;;;4935842;29;20317;-82
2020/12/16 00:23:04;;;;;;;;;;;25.50;94.20;;;;;;4937261;29;19915;-84
2020/12/16 00:25:31;;;;;;;;;;;25.30;94.60;;;;;;4932220;29;19911;-87
2020/12/16 00:27:58;;;;;;;;;;;25.30;95.10;;;;;;4937951;29;19907;-87
2020/12/16 00:30:24;;;;;;;;;;;25.30;94.40;;;;;;4932505;29;19911;-85
2020/12/16 00:32:51;;;;;;;;;;;25.30;94.50;;;;;;4917645;29;19907;-86
2020/12/16 00:35:18;;;;;;;;;;;25.20;94.50;;;;;;4922747;29;19950;-85
2020/12/16 00:37:44;;;;;;;;;;;25.20;94.90;;;;;;4919127;29;19923;-85
2020/12/16 00:40:13;;;;;;;;;;;25.30;94.00;;;;;;4922578;29;19922;-84
2020/12/16 00:42:39;;;;;;;;;;;25.40;93.90;;;;;;4930484;29;19922;-85
2020/12/16 00:45:07;;;;;;;;;;;25.50;94.10;;;;;;4928198;29;19939;-87
2020/12/16 00:47:35;;;;;;;;;;;25.80;93.70;;;;;;4915681;29;19998;-87
2020/12/16 00:50:01;;;;;;;;;;;26.10;93.20;;;;;;4922239;29;19910;-85
2020/12/16 00:52:28;;;;;;;;;;;26.30;92.20;;;;;;4936950;29;19907;-87
2020/12/16 00:54:55;;;;;;;;;;;26.00;92.60;;;;;;4935692;29;20288;-87
2020/12/16 00:57:22;;;;;;;;;;;26.00;92.90;;;;;;4936317;29;19917;-84
2020/12/16 00:59:49;;;;;;;;;;;26.10;92.70;;;;;;4909487;29;19911;-84
2020/12/16 01:02:16;;;;;;;;;;;26.60;92.40;;;;;;4919787;29;19973;-84
2020/12/16 01:04:43;;;;;;;;;;;26.90;91.80;;;;;;4920395;29;20278;-84
2020/12/16 01:07:10;;;;;;;;;;;27.00;90.80;;;;;;4931650;29;19914;-86
2020/12/16 01:09:36;;;;;;;;;;;26.90;91.00;;;;;;4931966;29;19907;-85
2020/12/16 01:12:03;;;;;;;;;;;26.90;91.10;;;;;;4923011;29;19970;-86
2020/12/16 01:14:30;;;;;;;;;;;27.10;90.60;;;;;;4921446;29;20289;-86
2020/12/16 01:16:57;;;;;;;;;;;27.20;90.50;;;;;;4919596;29;19911;-84
2020/12/16 01:19:23;;;;;;;;;;;27.20;90.20;;;;;;4922083;29;20410;-85
2020/12/16 01:21:50;;;;;;;;;;;27.30;89.40;;;;;;4921560;29;19911;-83
2020/12/16 01:24:17;;;;;;;;;;;26.80;90.00;;;;;;4919100;29;19919;-85
2020/12/16 01:26:48;;;;;;;;;;;26.70;91.10;;;;;;4929902;29;20005;-82
2020/12/16 01:29:15;;;;;;;;;;;26.80;90.70;;;;;;4922015;29;19961;-84
2020/12/16 01:31:42;;;;;;;;;;;26.80;90.90;;;;;;4920714;29;20317;-84
2020/12/16 01:34:09;;;;;;;;;;;26.70;91.10;;;;;;4932708;29;19914;-82
2020/12/16 01:36:39;;;;;;;;;;;26.60;91.60;;;;;;4930228;29;19910;-84
2020/12/16 01:39:07;;;;;;;;;;;26.60;91.00;;;;;;4918825;29;19914;-83
2020/12/16 01:41:34;;;;;;;;;;;26.70;91.60;;;;;;4918133;29;19918;-84
2020/12/16 01:44:13;;;;;;;;;;;26.50;91.20;;;;;;4918507;29;20334;-84
2020/12/16 01:46:47;;;;;;;;;;;26.40;92.00;;;;;;4924761;29;20034;-82
2020/12/16 01:49:14;;;;;;;;;;;26.30;92.00;;;;;;4937412;29;19906;-85
2020/12/16 01:51:42;;;;;;;;;;;26.00;92.90;;;;;;4930988;29;19911;-84
2020/12/16 01:54:09;;;;;;;;;;;26.00;93.10;;;;;;4933993;29;19914;-86
2020/12/16 01:56:40;;;;;;;;;;;26.20;92.00;;;;;;4931526;29;19965;-86
2020/12/16 01:59:12;;;;;;;;;;;26.20;92.70;;;;;;4921212;29;19914;-87
2020/12/16 02:01:41;;;;;;;;;;;26.30;92.10;;;;;;4926005;29;20001;-84
2020/12/16 02:04:09;;;;;;;;;;;26.30;92.60;;;;;;4918571;29;19919;-82
2020/12/16 02:06:36;;;;;;;;;;;26.30;92.50;;;;;;4916999;29;19918;-84
2020/12/16 02:09:12;;;;;;;;;;;26.50;92.30;;;;;;4918594;29;19990;-82
2020/12/16 02:11:40;;;;;;;;;;;26.60;91.60;;;;;;4925396;29;20381;-84
2020/12/16 02:14:08;;;;;;;;;;;26.50;91.60;;;;;;4918437;29;20231;-84
2020/12/16 02:16:35;;;;;;;;;;;26.50;92.10;;;;;;4921406;29;19934;-83
2020/12/16 02:19:03;;;;;;;;;;;26.60;91.40;;;;;;4935903;29;19911;-84
2020/12/16 02:21:30;;;;;;;;;;;26.40;91.40;;;;;;4922524;29;20332;-83
2020/12/16 02:24:12;;;;;;;;;;;26.30;91.90;;;;;;4905105;29;19921;-84
2020/12/16 02:26:39;;;;;;;;;;;26.20;91.70;;;;;;4925189;29;19915;-83
2020/12/16 02:29:08;;;;;;;;;;;26.10;91.80;;;;;;4927092;29;19911;-83
2020/12/16 02:31:37;;;;;;;;;;;25.90;92.20;;;;;;4923796;29;19911;-85
2020/12/16 02:34:04;;;;;;;;;;;26.00;92.40;;;;;;4920248;29;19955;-82
2020/12/16 02:36:31;;;;;;;;;;;26.10;92.30;;;;;;4941612;29;19970;-83
2020/12/16 02:38:58;;;;;;;;;;;26.20;91.90;;;;;;4938490;29;19937;-83
2020/12/16 02:41:27;;;;;;;;;;;26.30;91.50;;;;;;4914591;29;19911;-82
2020/12/16 02:43:53;;;;;;;;;;;26.20;91.60;;;;;;4919009;29;19918;-81
2020/12/16 02:46:20;;;;;;;;;;;26.10;92.20;;;;;;4916783;29;19914;-83
2020/12/16 02:48:47;;;;;;;;;;;25.90;92.10;;;;;;4924949;29;19911;-82
2020/12/16 02:51:13;;;;;;;;;;;25.70;92.60;;;;;;4925505;29;19915;-83
2020/12/16 02:53:40;;;;;;;;;;;25.60;92.50;;;;;;4918216;29;19923;-82
2020/12/16 02:56:07;;;;;;;;;;;25.50;92.70;;;;;;4921328;29;19923;-82
2020/12/16 02:58:34;;;;;;;;;;;25.30;93.00;;;;;;4916986;29;19915;-82
2020/12/16 03:01:00;;;;;;;;;;;25.00;93.50;;;;;;4918683;29;19911;-82
2020/12/16 03:03:27;;;;;;;;;;;24.80;93.50;;;;;;4916447;29;20010;-82
2020/12/16 03:05:54;;;;;;;;;;;24.70;94.10;;;;;;4919036;29;19911;-82
2020/12/16 03:08:20;;;;;;;;;;;24.60;94.30;;;;;;4921153;29;19911;-79
2020/12/16 03:10:50;;;;;;;;;;;24.70;94.70;;;;;;4907906;29;20317;-83
2020/12/16 03:13:17;;;;;;;;;;;24.60;94.30;;;;;;4911015;29;20002;-79
2020/12/16 03:15:49;;;;;;;;;;;24.60;94.70;;;;;;4918777;29;19986;-89
2020/12/16 03:18:22;;;;;;;;;;;24.50;94.70;;;;;;4917439;29;19939;-85
2020/12/16 03:20:49;;;;;;;;;;;24.50;94.60;;;;;;4916749;29;20087;-81
2020/12/16 03:23:15;;;;;;;;;;;24.40;94.90;;;;;;4907031;29;19926;-82
2020/12/16 03:25:42;;;;;;;;;;;24.40;95.20;;;;;;4920182;29;19962;-83
2020/12/16 03:28:09;;;;;;;;;;;24.40;95.30;;;;;;4920048;29;19910;-80
2020/12/16 03:30:35;;;;;;;;;;;24.40;95.20;;;;;;4909685;29;20005;-83
2020/12/16 03:33:05;;;;;;;;;;;24.30;95.40;;;;;;4918374;29;19911;-82
2020/12/16 03:35:32;;;;;;;;;;;24.30;95.80;;;;;;4916190;29;19915;-82
2020/12/16 03:38:01;;;;;;;;;;;24.20;95.80;;;;;;4907944;29;19994;-81
2020/12/16 03:40:28;;;;;;;;;;;24.10;96.30;;;;;;4928791;29;19979;-82
2020/12/16 03:42:55;;;;;;;;;;;24.10;96.60;;;;;;4920961;29;20039;-81
2020/12/16 03:45:21;;;;;;;;;;;24.00;96.60;;;;;;4935863;29;19913;-86
2020/12/16 03:47:48;;;;;;;;;;;23.90;97.00;;;;;;4931068;29;19911;-82
2020/12/16 03:50:15;;;;;;;;;;;23.80;97.50;;;;;;4924254;29;19917;-81
2020/12/16 03:52:41;;;;;;;;;;;23.60;97.80;;;;;;4933078;29;19911;-83
2020/12/16 03:55:09;;;;;;;;;;;23.60;98.00;;;;;;4927047;29;19989;-85
2020/12/16 03:57:36;;;;;;;;;;;23.50;98.20;;;;;;4929596;29;20065;-79
2020/12/16 04:00:04;;;;;;;;;;;23.40;98.20;;;;;;4924820;29;19911;-85
2020/12/16 04:02:31;;;;;;;;;;;23.40;98.30;;;;;;4922368;29;20400;-85
2020/12/16 04:04:59;;;;;;;;;;;23.30;98.40;;;;;;4935875;29;19923;-84
2020/12/16 04:07:25;;;;;;;;;;;23.30;98.50;;;;;;4911742;29;19952;-81
2020/12/16 04:09:52;;;;;;;;;;;23.30;98.30;;;;;;4925983;29;19918;-81
2020/12/16 04:12:19;;;;;;;;;;;23.30;98.60;;;;;;4924607;29;19925;-84
2020/12/16 04:14:45;;;;;;;;;;;23.30;98.50;;;;;;4919787;29;20081;-83
2020/12/16 04:17:12;;;;;;;;;;;23.30;98.30;;;;;;4935365;29;20358;-83
2020/12/16 04:19:38;;;;;;;;;;;23.40;98.20;;;;;;4921942;29;19914;-82
2020/12/16 04:22:05;;;;;;;;;;;23.40;98.10;;;;;;4916188;29;20347;-82
2020/12/16 04:24:32;;;;;;;;;;;23.40;97.80;;;;;;4924180;29;20001;-83
2020/12/16 04:26:58;;;;;;;;;;;23.40;97.60;;;;;;4929163;29;19915;-82
2020/12/16 04:29:26;;;;;;;;;;;23.50;97.70;;;;;;4927779;29;19999;-81
2020/12/16 04:31:53;;;;;;;;;;;23.50;97.60;;;;;;4934485;29;20262;-82
2020/12/16 04:34:20;;;;;;;;;;;23.60;97.40;;;;;;4936403;29;19922;-82
2020/12/16 04:36:48;;;;;;;;;;;23.70;97.20;;;;;;4917865;29;20340;-82
2020/12/16 04:39:15;;;;;;;;;;;23.80;96.80;;;;;;4930769;29;20416;-81
2020/12/16 04:41:42;;;;;;;;;;;23.80;96.60;;;;;;4932081;29;20361;-83
2020/12/16 04:44:13;;;;;;;;;;;23.90;96.50;;;;;;4918811;29;19919;-83
2020/12/16 04:46:41;;;;;;;;;;;24.00;96.00;;;;;;4904933;29;19911;-82
2020/12/16 04:49:09;;;;;;;;;;;24.10;95.80;;;;;;4919467;29;20042;-84
2020/12/16 04:51:36;;;;;;;;;;;24.00;95.40;;;;;;4922409;29;20286;-82
2020/12/16 04:54:03;;;;;;;;;;;23.90;95.70;;;;;;4921380;29;19907;-84
2020/12/16 04:56:31;;;;;;;;;;;23.80;95.90;;;;;;4919320;29;19911;-84
2020/12/16 04:58:57;;;;;;;;;;;23.70;96.20;;;;;;4919148;29;20002;-82
2020/12/16 05:01:24;;;;;;;;;;;23.70;96.30;;;;;;4918501;29;20369;-81
2020/12/16 05:03:54;;;;;;;;;;;23.60;96.40;;;;;;4919311;29;19922;-82
2020/12/16 05:06:36;;;;;;;;;;;23.60;96.40;;;;;;4918696;29;19907;-83
2020/12/16 05:09:05;;;;;;;;;;;23.50;96.50;;;;;;4918729;29;19978;-84
2020/12/16 05:11:36;;;;;;;;;;;23.50;96.60;;;;;;4918493;29;19914;-82
2020/12/16 05:14:20;;;;;;;;;;;23.60;96.60;;;;;;4918306;29;20350;-84
2020/12/16 05:16:54;;;;;;;;;;;23.50;96.50;;;;;;4918853;29;19907;-84
2020/12/16 05:19:30;;;;;;;;;;;23.60;96.50;;;;;;4924202;29;19911;-83
2020/12/16 05:22:15;;;;;;;;;;;23.50;96.60;;;;;;4903348;29;19919;-84
2020/12/16 05:24:42;;;;;;;;;;;23.50;96.60;;;;;;4883522;29;20301;-81
2020/12/16 05:27:09;;;;;;;;;;;23.60;96.50;;;;;;4907934;29;20340;-81
2020/12/16 05:29:37;;;;;;;;;;;23.50;96.40;;;;;;4928617;29;19907;-81
2020/12/16 05:32:17;;;;;;;;;;;23.50;96.60;;;;;;4938353;29;20314;-81
2020/12/16 05:34:43;;;;;;;;;;;23.50;96.70;;;;;;4945102;29;19910;-82
2020/12/16 05:37:26;;;;;;;;;;;23.50;96.70;;;;;;4937751;29;19921;-82
2020/12/16 05:39:54;;;;;;;;;;;23.40;96.80;;;;;;4918779;29;19907;-81
2020/12/16 05:42:20;;;;;;;;;;;23.40;96.90;;;;;;4918578;29;20385;-81
2020/12/16 05:44:47;;;;;;;;;;;23.40;96.70;;;;;;4918256;29;20422;-82
2020/12/16 05:47:14;;;;;;;;;;;23.30;96.90;;;;;;4919126;29;19998;-82
2020/12/16 05:49:40;;;;;;;;;;;23.30;96.80;;;;;;4918766;29;19918;-80
2020/12/16 05:52:07;;;;;;;;;;;23.30;96.80;;;;;;4919737;29;20366;-82
2020/12/16 05:54:37;;;;;;;;;;;23.30;96.90;;;;;;4919441;29;19993;-85
2020/12/16 05:57:12;;;;;;;;;;;23.30;96.80;;;;;;4916563;29;19954;-82
2020/12/16 05:59:39;;;;;;;;;;;23.30;96.90;;;;;;4896118;29;20021;-81
2020/12/16 06:02:07;;;;;;;;;;;23.30;96.90;;;;;;4911859;29;20378;-86
2020/12/16 06:04:34;;;;;;;;;;;23.20;97.00;;;;;;4907446;29;20351;-82
2020/12/16 06:07:02;;;;;;;;;;;23.20;97.00;;;;;;4902592;29;19918;-81
2020/12/16 06:09:30;;;;;;;;;;;23.20;97.00;;;;;;4917008;29;19915;-86
2020/12/16 06:12:03;;;;;;;;;;;23.20;97.10;;;;;;4899356;29;20350;-83
2020/12/16 06:14:35;;;;;;;;;;;23.10;97.10;;;;;;4916861;29;20487;-82
2020/12/16 06:17:22;;;;;;;;;;;23.20;97.00;;;;;;4915621;29;19958;-84
2020/12/16 06:19:50;;;;;;;;;;;23.10;97.10;;;;;;4899569;29;19918;-83
2020/12/16 06:22:17;;;;;;;;;;;23.10;97.20;;;;;;4915980;29;19989;-81
2020/12/16 06:24:44;;;;;;;;;;;23.10;97.30;;;;;;4898655;29;19919;-80
2020/12/16 06:27:11;;;;;;;;;;;23.00;97.40;;;;;;4913499;29;19911;-82
2020/12/16 06:29:41;;;;;;;;;;;23.00;97.30;;;;;;4916175;29;19911;-82
2020/12/16 06:32:12;;;;;;;;;;;23.00;97.30;;;;;;4916883;29;19911;-85
2020/12/16 06:34:39;;;;;;;;;;;23.00;97.50;;;;;;4897981;29;19971;-83
2020/12/16 06:37:06;;;;;;;;;;;22.90;97.40;;;;;;4909728;29;19911;-86
2020/12/16 06:39:39;;;;;;;;;;;23.00;97.40;;;;;;4915670;29;19993;-88
2020/12/16 06:42:06;;;;;;;;;;;22.90;97.40;;;;;;4913973;29;19911;-84
2020/12/16 06:44:32;;;;;;;;;;;22.90;97.50;;;;;;4915104;29;19990;-81
2020/12/16 06:46:59;;;;;;;;;;;22.90;97.50;;;;;;4915254;29;20026;-83
2020/12/16 06:49:33;;;;;;;;;;;22.90;97.60;;;;;;4916630;29;19914;-83
2020/12/16 06:51:59;;;;;;;;;;;22.90;97.60;;;;;;4916342;29;20234;-87
2020/12/16 06:54:27;;;;;;;;;;;22.90;97.60;;;;;;4919602;29;20396;-81
2020/12/16 06:57:13;;;;;;;;;;;22.90;97.60;;;;;;4918654;29;20639;-83
2020/12/16 06:59:47;;;;;;;;;;;22.90;97.60;;;;;;4917954;29;19994;-84
2020/12/16 07:02:15;;;;;;;;;;;22.90;97.60;;;;;;4921946;29;19919;-84
2020/12/16 07:04:43;;;;;;;;;;;22.80;97.60;;;;;;4921715;29;19919;-83
2020/12/16 07:07:29;;;;;;;;;;;22.80;97.50;;;;;;4920362;29;19950;-83
2020/12/16 07:09:56;;;;;;;;;;;22.80;97.60;;;;;;4900718;29;20010;-83
2020/12/16 07:12:29;;;;;;;;;;;22.90;97.70;;;;;;4896727;29;19914;-83
2020/12/16 07:14:57;;;;;;;;;;;22.90;97.40;;;;;;4896626;29;19918;-84
2020/12/16 07:17:24;;;;;;;;;;;22.90;97.40;;;;;;4896492;29;19908;-84
2020/12/16 07:19:52;;;;;;;;;;;22.90;97.40;;;;;;4903541;29;19911;-83
2020/12/16 07:22:24;;;;;;;;;;;22.90;97.40;;;;;;4914302;29;19999;-84
2020/12/16 07:24:51;;;;;;;;;;;22.80;97.40;;;;;;4915057;29;19965;-83
2020/12/16 07:27:22;;;;;;;;;;;22.80;97.60;;;;;;4897020;29;19911;-82
2020/12/16 07:29:56;;;;;;;;;;;22.70;97.70;;;;;;4915578;29;20400;-82
2020/12/16 07:32:23;;;;;;;;;;;22.70;97.70;;;;;;4898493;29;19911;-84
2020/12/16 07:34:51;;;;;;;;;;;22.70;97.60;;;;;;4915126;29;20009;-84
2020/12/16 07:37:19;;;;;;;;;;;22.70;97.50;;;;;;4915407;29;19934;-83
2020/12/16 07:39:53;;;;;;;;;;;22.70;97.50;;;;;;4915137;29;19907;-83
2020/12/16 07:42:25;;;;;;;;;;;22.60;97.60;;;;;;4879858;29;19923;-85
2020/12/16 07:44:52;;;;;;;;;;;22.60;97.70;;;;;;4915553;29;19983;-85
2020/12/16 07:47:19;;;;;;;;;;;22.60;97.60;;;;;;4898058;29;20021;-84
2020/12/16 07:49:46;;;;;;;;;;;22.60;97.50;;;;;;4914858;29;19907;-85
2020/12/16 07:52:13;;;;;;;;;;;22.60;97.50;;;;;;4915007;29;19974;-84
2020/12/16 07:54:40;;;;;;;;;;;22.60;97.60;;;;;;4914990;29;19911;-86
2020/12/16 07:57:06;;;;;;;;;;;22.60;97.60;;;;;;4914950;29;19907;-86
2020/12/16 07:59:34;;;;;;;;;;;22.60;97.50;;;;;;4898266;29;19934;-85
2020/12/16 08:02:19;;;;;;;;;;;22.60;97.40;;;;;;4914629;29;19918;-86
2020/12/16 08:04:54;;;;;;;;;;;22.50;97.50;;;;;;4915595;29;19992;-84
2020/12/16 08:07:21;;;;;;;;;;;22.60;97.40;;;;;;4916664;29;19913;-85
2020/12/16 08:10:00;;;;;;;;;;;22.50;97.60;;;;;;4916852;29;19918;-86
2020/12/16 08:12:28;;;;;;;;;;;22.60;97.60;;;;;;4916550;29;19907;-84
2020/12/16 08:15:07;;;;;;;;;;;22.50;97.40;;;;;;4916803;29;20309;-84
2020/12/16 08:17:40;;;;;;;;;;;22.50;97.50;;;;;;4916698;29;19931;-81
2020/12/16 08:20:23;;;;;;;;;;;22.50;97.60;;;;;;4916523;29;19907;-85
2020/12/16 08:22:51;;;;;;;;;;;22.50;97.60;;;;;;4915771;29;19911;-84
2020/12/16 08:25:18;;;;;;;;;;;22.50;97.60;;;;;;4915512;29;19970;-84
2020/12/16 08:27:49;;;;;;;;;;;22.50;97.60;;;;;;4914312;29;20039;-85
2020/12/16 08:30:18;;;;;;;;;;;22.50;97.60;;;;;;4897956;29;20281;-86
2020/12/16 08:32:51;;;;;;;;;;;22.50;97.70;;;;;;4897236;29;19919;-81
2020/12/16 08:35:20;;;;;;;;;;;22.40;97.70;;;;;;4915009;29;19907;-81
2020/12/16 08:37:48;;;;;;;;;;;22.40;97.80;;;;;;4915229;29;19933;-82
2020/12/16 08:40:15;;;;;;;;;;;22.40;97.70;;;;;;4922886;29;19907;-83
2020/12/16 08:42:42;;;;;;;;;;;22.40;97.70;;;;;;4918869;29;19963;-82
2020/12/16 08:45:10;;;;;;;;;;;22.40;97.90;;;;;;4917056;29;20259;-82
2020/12/16 08:47:37;;;;;;;;;;;22.40;97.80;;;;;;4916968;29;19907;-81
2020/12/16 08:50:06;;;;;;;;;;;22.40;97.90;;;;;;4917659;29;19910;-82
2020/12/16 08:52:42;;;;;;;;;;;22.40;97.80;;;;;;4899382;29;19958;-83
2020/12/16 08:55:13;;;;;;;;;;;22.40;97.80;;;;;;4917038;29;19994;-82
2020/12/16 08:57:49;;;;;;;;;;;22.40;97.80;;;;;;4916562;29;20310;-82
2020/12/16 09:00:15;;;;;;;;;;;22.40;97.80;;;;;;4922861;29;20370;-87
2020/12/16 09:02:42;;;;;;;;;;;22.40;97.80;;;;;;4918180;29;19919;-82
2020/12/16 09:05:09;;;;;;;;;;;22.40;97.80;;;;;;4919528;29;19942;-83
2020/12/16 09:07:38;;;;;;;;;;;22.30;97.90;;;;;;4929588;29;20046;-84
2020/12/16 09:10:08;;;;;;;;;;;22.40;97.90;;;;;;4928758;29;20065;-83
2020/12/16 09:12:39;;;;;;;;;;;22.40;97.90;;;;;;4934523;29;19931;-82
2020/12/16 09:15:06;;;;;;;;;;;22.40;97.90;;;;;;4930878;29;19918;-84
2020/12/16 09:17:35;;;;;;;;;;;22.40;97.90;;;;;;4931649;29;19918;-83
2020/12/16 09:20:02;;;;;;;;;;;22.40;98.20;;;;;;4928296;29;19950;-85
2020/12/16 09:22:29;;;;;;;;;;;22.40;98.00;;;;;;4925656;29;19926;-84
2020/12/16 09:24:56;;;;;;;;;;;22.40;98.30;;;;;;4900186;29;19922;-86
2020/12/16 09:27:23;;;;;;;;;;;22.40;98.00;;;;;;4933148;29;19957;-86
2020/12/16 09:29:50;;;;;;;;;;;22.40;98.00;;;;;;4923256;29;19911;-85
2020/12/16 09:32:21;;;;;;;;;;;22.40;98.10;;;;;;4919718;29;19974;-83
2020/12/16 09:34:49;;;;;;;;;;;22.40;98.10;;;;;;4916494;29;19907;-84
2020/12/16 09:37:20;;;;;;;;;;;22.30;98.10;;;;;;4909707;29;19945;-84
2020/12/16 09:39:47;;;;;;;;;;;22.30;98.20;;;;;;4917136;29;20406;-83
2020/12/16 09:42:18;;;;;;;;;;;22.30;98.10;;;;;;4912412;29;20323;-82
2020/12/16 09:44:45;;;;;;;;;;;22.30;98.10;;;;;;4901428;29;19923;-83
2020/12/16 09:47:13;;;;;;;;;;;22.30;98.20;;;;;;4915278;29;19943;-85
2020/12/16 09:49:41;;;;;;;;;;;22.40;98.10;;;;;;4919107;29;19911;-84
2020/12/16 09:52:26;;;;;;;;;;;22.40;98.10;;;;;;4911192;29;19914;-85
2020/12/16 09:54:53;;;;;;;;;;;22.40;98.10;;;;;;4911659;29;19907;-85
2020/12/16 09:57:23;;;;;;;;;;;22.40;98.10;;;;;;4918634;29;20441;-89
2020/12/16 09:59:51;;;;;;;;;;;22.40;98.20;;;;;;4891891;29;19911;-84
2020/12/16 10:02:21;;;;;;;;;;;22.40;98.00;;;;;;4911963;29;19926;-86
2020/12/16 10:04:48;;;;;;;;;;;22.40;98.20;;;;;;4909305;29;20022;-83
2020/12/16 10:07:14;;;;;;;;;;;22.40;98.10;;;;;;4909402;29;19907;-83
2020/12/16 10:09:52;;;;;;;;;;;22.40;98.20;;;;;;4907749;29;19907;-82
2020/12/16 10:12:22;;;;;;;;;;;22.40;98.40;;;;;;4915385;29;19907;-86
2020/12/16 10:14:49;;;;;;;;;;;22.50;98.40;;;;;;4921593;29;20341;-84
2020/12/16 10:17:19;;;;;;;;;;;22.50;98.00;;;;;;4905434;29;19907;-85
2020/12/16 10:19:46;;;;;;;;;;;22.50;98.10;;;;;;4923900;29;19914;-84
2020/12/16 10:22:13;;;;;;;;;;;22.40;98.20;;;;;;4927454;29;19917;-86
2020/12/16 10:24:46;;;;;;;;;;;22.40;98.20;;;;;;4919602;29;20265;-85
2020/12/16 10:27:13;;;;;;;;;;;22.40;98.30;;;;;;4913335;29;19911;-84
2020/12/16 10:29:42;;;;;;;;;;;22.40;98.20;;;;;;4908081;29;20274;-86
2020/12/16 10:32:14;;;;;;;;;;;22.40;98.20;;;;;;4905712;29;19940;-87
2020/12/16 10:34:41;;;;;;;;;;;22.30;98.40;;;;;;4901978;29;19914;-88
2020/12/16 10:37:07;;;;;;;;;;;22.30;98.40;;;;;;4901855;29;20376;-86
2020/12/16 10:39:34;;;;;;;;;;;22.30;98.40;;;;;;4918792;29;19911;-87
2020/12/16 10:42:13;;;;;;;;;;;22.30;98.40;;;;;;4911348;29;19971;-86
2020/12/16 10:44:40;;;;;;;;;;;22.30;98.30;;;;;;4908583;29;19955;-87
2020/12/16 10:47:10;;;;;;;;;;;22.30;98.20;;;;;;4918111;29;19907;-86
2020/12/16 10:49:40;;;;;;;;;;;22.30;98.10;;;;;;4918269;29;19970;-87
2020/12/16 10:52:14;;;;;;;;;;;22.30;98.00;;;;;;4915743;29;20331;-86
2020/12/16 10:54:44;;;;;;;;;;;22.30;98.00;;;;;;4916956;29;19907;-87
2020/12/16 10:57:11;;;;;;;;;;;22.30;97.90;;;;;;4918534;29;19914;-89
2020/12/16 10:59:38;;;;;;;;;;;22.30;97.70;;;;;;4903889;29;19958;-84
2020/12/16 11:02:08;;;;;;;;;;;22.30;97.60;;;;;;4916082;29;20277;-88
2020/12/16 11:04:37;;;;;;;;;;;22.30;97.60;;;;;;4899320;29;19915;-89
2020/12/16 11:07:05;;;;;;;;;;;22.20;97.60;;;;;;4918995;29;19961;-89
2020/12/16 11:09:37;;;;;;;;;;;22.20;97.70;;;;;;4902020;29;19910;-87
2020/12/16 11:12:04;;;;;;;;;;;22.10;97.70;;;;;;4919249;29;20115;-87
2020/12/16 11:14:31;;;;;;;;;;;22.10;97.60;;;;;;4918498;29;19911;-86
2020/12/16 11:17:17;;;;;;;;;;;22.10;97.60;;;;;;4917718;29;20358;-86
2020/12/16 11:19:44;;;;;;;;;;;22.10;97.50;;;;;;4898310;29;19907;-86
2020/12/16 11:22:12;;;;;;;;;;;22.10;97.50;;;;;;4918315;29;19911;-87
2020/12/16 11:24:39;;;;;;;;;;;22.10;97.50;;;;;;4901099;29;19915;-88
2020/12/16 11:27:05;;;;;;;;;;;22.10;97.40;;;;;;4918681;29;19938;-89
2020/12/16 11:29:32;;;;;;;;;;;22.10;97.30;;;;;;4901656;29;19911;-85
2020/12/16 11:32:03;;;;;;;;;;;22.10;97.30;;;;;;4901628;29;20275;-89
2020/12/16 11:34:32;;;;;;;;;;;22.10;97.30;;;;;;4901903;29;19926;-87
2020/12/16 11:37:00;;;;;;;;;;;22.10;97.40;;;;;;4912473;29;19922;-88
2020/12/16 11:39:28;;;;;;;;;;;22.10;97.30;;;;;;4915899;29;19918;-86
2020/12/16 11:41:56;;;;;;;;;;;22.10;97.30;;;;;;4909138;29;20311;-83
2020/12/16 11:44:23;;;;;;;;;;;22.10;97.30;;;;;;4917369;29;20383;-86
2020/12/16 11:46:51;;;;;;;;;;;22.10;97.30;;;;;;4922283;29;19925;-85
2020/12/16 11:49:17;;;;;;;;;;;22.10;97.20;;;;;;4919516;29;19907;-88
2020/12/16 11:51:44;;;;;;;;;;;22.10;97.10;;;;;;4901067;29;19914;-87
2020/12/16 11:54:11;;;;;;;;;;;22.00;97.20;;;;;;4917764;29;20336;-86
2020/12/16 11:56:38;;;;;;;;;;;22.10;97.10;;;;;;4900665;29;20255;-87
2020/12/16 11:59:05;;;;;;;;;;;22.00;97.10;;;;;;4901516;29;19939;-86
2020/12/16 12:01:32;;;;;;;;;;;22.10;97.10;;;;;;4901084;29;19907;-88
2020/12/16 12:03:59;;;;;;;;;;;22.00;97.10;;;;;;4918308;29;19919;-86
2020/12/16 12:06:28;;;;;;;;;;;22.00;97.10;;;;;;4902861;29;19911;-87
2020/12/16 12:08:54;;;;;;;;;;;22.00;97.00;;;;;;4918734;29;19911;-87
2020/12/16 12:11:21;;;;;;;;;;;22.00;97.20;;;;;;4922502;29;20047;-87
2020/12/16 12:13:48;;;;;;;;;;;22.00;97.20;;;;;;4918158;29;19994;-89
2020/12/16 12:16:16;;;;;;;;;;;22.00;97.20;;;;;;4916773;29;20420;-86
2020/12/16 12:18:43;;;;;;;;;;;22.00;97.20;;;;;;4916535;29;19955;-86
2020/12/16 12:21:10;;;;;;;;;;;22.00;97.20;;;;;;4917920;29;20054;-87
2020/12/16 12:23:37;;;;;;;;;;;22.00;97.30;;;;;;4918243;29;20409;-87
2020/12/16 12:26:04;;;;;;;;;;;22.00;97.20;;;;;;4902414;29;19931;-87
2020/12/16 12:28:31;;;;;;;;;;;22.00;97.20;;;;;;4922449;29;19915;-83
2020/12/16 12:30:58;;;;;;;;;;;21.90;97.20;;;;;;4915449;29;19907;-86
2020/12/16 12:33:25;;;;;;;;;;;21.90;97.20;;;;;;4915844;29;20218;-82
2020/12/16 12:35:52;;;;;;;;;;;22.00;97.20;;;;;;4916521;29;20374;-84
2020/12/16 12:38:19;;;;;;;;;;;22.00;97.20;;;;;;4915558;29;19939;-84
2020/12/16 12:40:45;;;;;;;;;;;22.00;97.20;;;;;;4919989;29;19914;-84
2020/12/16 12:43:12;;;;;;;;;;;22.00;97.10;;;;;;4917789;29;20385;-85
2020/12/16 12:45:39;;;;;;;;;;;22.00;97.00;;;;;;4935951;29;19970;-85
2020/12/16 12:48:05;;;;;;;;;;;22.00;97.00;;;;;;4931047;29;19994;-83
2020/12/16 12:50:32;;;;;;;;;;;22.10;97.00;;;;;;4919663;29;19919;-85
2020/12/16 12:52:59;;;;;;;;;;;22.00;97.00;;;;;;4920098;29;19908;-85
2020/12/16 12:55:25;;;;;;;;;;;22.10;97.00;;;;;;4920028;29;19931;-85
2020/12/16 12:57:52;;;;;;;;;;;22.00;97.00;;;;;;4919991;29;19914;-85
2020/12/16 13:00:19;;;;;;;;;;;22.10;97.00;;;;;;4919987;29;19942;-86
2020/12/16 13:02:45;;;;;;;;;;;22.10;97.10;;;;;;4919658;29;19967;-86
2020/12/16 13:05:12;;;;;;;;;;;22.10;96.90;;;;;;4931802;29;19915;-86
2020/12/16 13:07:40;;;;;;;;;;;22.10;96.80;;;;;;4919958;29;19907;-86
2020/12/16 13:10:08;;;;;;;;;;;22.10;96.80;;;;;;4932374;29;19915;-85
2020/12/16 13:12:35;;;;;;;;;;;22.10;96.90;;;;;;4921083;29;20274;-86
2020/12/16 13:15:03;;;;;;;;;;;22.10;96.90;;;;;;4919826;29;19911;-85
2020/12/16 13:17:29;;;;;;;;;;;22.10;97.00;;;;;;4920208;29;20355;-85
2020/12/16 13:19:56;;;;;;;;;;;22.00;97.00;;;;;;4921303;29;20216;-85
2020/12/16 13:22:23;;;;;;;;;;;22.00;97.10;;;;;;4922095;29;20004;-86
2020/12/16 13:24:50;;;;;;;;;;;22.00;97.20;;;;;;4924701;29;19926;-86
2020/12/16 13:27:21;;;;;;;;;;;22.00;97.20;;;;;;4919985;29;19914;-84
2020/12/16 13:29:48;;;;;;;;;;;21.90;97.10;;;;;;4928753;29;19917;-84
2020/12/16 13:32:15;;;;;;;;;;;22.00;97.20;;;;;;4921344;29;19907;-84
2020/12/16 13:34:41;;;;;;;;;;;22.00;97.20;;;;;;4937336;29;19910;-84
2020/12/16 13:37:08;;;;;;;;;;;22.00;97.10;;;;;;4921861;29;19959;-83
2020/12/16 13:39:35;;;;;;;;;;;22.00;97.00;;;;;;4932815;29;20005;-84
2020/12/16 13:42:01;;;;;;;;;;;22.00;96.90;;;;;;4942196;29;19906;-84
2020/12/16 13:44:28;;;;;;;;;;;22.00;97.00;;;;;;4929995;29;20013;-85
2020/12/16 13:46:55;;;;;;;;;;;22.00;97.00;;;;;;4943590;29;19942;-83
2020/12/16 13:49:22;;;;;;;;;;;22.00;96.90;;;;;;4932978;29;19917;-86
2020/12/16 13:51:48;;;;;;;;;;;22.00;96.90;;;;;;4920212;29;20374;-84
2020/12/16 13:54:15;;;;;;;;;;;22.00;96.90;;;;;;4920146;29;19911;-84
2020/12/16 13:56:42;;;;;;;;;;;22.00;97.00;;;;;;4936097;29;19911;-86
2020/12/16 13:59:08;;;;;;;;;;;21.90;97.00;;;;;;4937927;29;19954;-85
2020/12/16 14:01:35;;;;;;;;;;;21.90;97.20;;;;;;4938439;29;19918;-86
2020/12/16 14:04:02;;;;;;;;;;;21.80;97.30;;;;;;4931955;29;19919;-85
2020/12/16 14:06:29;;;;;;;;;;;21.80;97.40;;;;;;4930309;29;19911;-85
2020/12/16 14:08:55;;;;;;;;;;;21.80;97.40;;;;;;4926909;29;20417;-86
2020/12/16 14:11:22;;;;;;;;;;;21.80;97.50;;;;;;4918763;29;20050;-85
2020/12/16 14:13:50;;;;;;;;;;;21.80;97.50;;;;;;4925846;29;19987;-85
2020/12/16 14:16:20;;;;;;;;;;;21.80;97.50;;;;;;4936153;29;20379;-84
2020/12/16 14:18:48;;;;;;;;;;;21.80;97.50;;;;;;4924741;29;19911;-85
2020/12/16 14:21:18;;;;;;;;;;;21.80;97.50;;;;;;4918970;29;19911;-85
2020/12/16 14:23:45;;;;;;;;;;;21.80;97.50;;;;;;4924348;29;19927;-85